Latest Weather Observations for Geraldton Airport

IDW60801

Issued at 9:02 am WST Thursday 2 April 2015 (issued every 30 minutes, with the page automatically refreshed every 10 minutes)

About weather observations | Map of weather stations | Latest weather observations for WA | Other Formats
Station Details ID: 008315 Name: GERALDTON AIRPORT Lat: -28.80 Lon: 114.70 Height: 29.7 m
Data from the previous 72 hours. | See also: Recent months at Geraldton Airport
Date/Time
WST
Temp
°C
App
Temp
°C
Dew
Point
Rel
Hum
%
Delta-T
°C
Wind Press
QNH
hPa
Press
MSL
hPa
Rain
since 9 am
mm
Dir
 
Spd
km/h
Gust
km/h
Spd
kts
Gust
kts
02/08:30am 22.7 17.1 13.2 55 5.5 ENE 35 44 19 24 1017.5 - 0.0
02/08:00am 21.3 17.4 13.3 60 4.6 ENE 26 35 14 19 1017.4 - 0.0
02/07:30am 20.5 18.4 13.6 64 4.0 ENE 17 26 9 14 1017.4 - 0.0
02/07:00am 19.5 18.1 13.4 68 3.5 NE 13 19 7 10 1017.4 - 0.0
02/06:30am 19.2 18.2 13.5 69 3.3 NE 11 15 6 8 1017.4 - 0.0
02/05:30am 19.4 16.3 13.4 68 3.4 NE 22 30 12 16 1017.2 - 0.0
02/05:00am 19.9 16.3 13.1 65 3.9 NE 24 30 13 16 1016.7 - 0.0
02/04:30am 20.1 17.3 13.2 64 3.9 NE 20 28 11 15 1016.8 - 0.0
02/04:00am 20.2 17.0 13.2 64 4.0 ENE 22 32 12 17 1016.7 - 0.0
02/03:30am 20.7 16.7 13.0 61 4.4 NE 26 32 14 17 1016.7 - 0.0
02/03:00am 21.0 16.7 13.1 60 4.5 ENE 28 35 15 19 1016.8 1016.7 0.0
02/02:30am 21.7 16.5 12.7 56 5.1 ENE 32 43 17 23 1016.7 - 0.0
02/02:00am 21.7 17.4 13.2 58 4.9 ENE 28 35 15 19 1016.9 - 0.0
02/01:30am 22.2 17.1 13.1 56 5.2 ENE 32 39 17 21 1016.9 - 0.0
02/01:00am 21.9 17.9 14.0 61 4.6 ENE 28 35 15 19 1016.9 - 0.0
02/12:30am 21.9 18.7 14.2 61 4.5 ENE 24 30 13 16 1017.1 - 0.0
02/12:00am 21.7 19.0 14.5 63 4.2 E 22 28 12 15 1017.0 1016.9 0.0
 
Date/Time
WST
Temp
°C
App
Temp
°C
Dew
Point
Rel
Hum
%
Delta-T
°C
Wind Press
QNH
hPa
Press
MSL
hPa
Rain
since 9 am
mm
Dir
 
Spd
km/h
Gust
km/h
Spd
kts
Gust
kts
01/11:30pm 19.9 21.4 17.7 87 1.4 E 6 9 3 5 1017.1 - 0.0
01/11:00pm 20.8 20.6 17.6 82 2.0 ESE 15 24 8 13 1017.2 - 0.0
01/10:30pm 20.1 20.4 18.7 92 0.9 ESE 15 15 8 8 1017.4 - 0.0
01/10:00pm 20.3 22.3 18.8 91 0.9 E 6 7 3 4 1017.7 - 0.0
01/09:30pm 20.6 22.2 19.2 92 0.9 ESE 9 11 5 6 1017.7 - 0.0
01/09:00pm 21.1 22.6 19.0 88 1.3 SSE 9 13 5 7 1017.8 1017.7 0.0
01/08:30pm 21.3 21.3 18.9 86 1.5 SSE 17 20 9 11 1017.5 - 0.0
01/08:00pm 21.4 20.7 18.7 84 1.7 SSE 20 26 11 14 1017.5 - 0.0
01/07:30pm 21.4 20.0 18.7 84 1.7 SSE 24 30 13 16 1017.5 - 0.0
01/07:00pm 21.6 20.1 18.6 83 1.9 S 24 30 13 16 1017.3 - 0.0
01/06:30pm 21.8 19.5 18.4 81 2.1 S 28 35 15 19 1017.1 - 0.0
01/06:00pm 22.1 18.7 18.1 78 2.5 S 33 41 18 22 1016.8 1016.7 0.0
01/05:30pm 22.7 19.2 17.9 74 3.0 S 33 39 18 21 1016.6 - 0.0
01/05:00pm 23.6 19.9 17.4 68 3.8 S 33 43 18 23 1016.5 - 0.0
01/04:30pm 24.0 20.6 17.6 67 4.0 S 32 39 17 21 1016.5 - 0.0
01/04:00pm 24.3 19.8 17.4 65 4.3 S 37 44 20 24 1016.3 - 0.0
01/03:30pm 25.3 21.9 17.6 62 4.8 S 32 43 17 23 1016.4 - 0.0
01/03:00pm 24.7 21.1 17.6 64 4.4 S 33 43 18 23 1016.6 1016.5 0.0
01/02:30pm 26.1 23.3 18.1 61 5.1 S 30 41 16 22 1016.8 - 0.0
01/02:00pm 25.9 22.9 17.7 60 5.2 S 30 37 16 20 1017.3 - 0.0
01/01:30pm 25.3 22.3 16.9 59 5.2 SSW 28 35 15 19 1017.5 - 0.0
01/01:00pm 25.4 22.4 16.9 59 5.3 S 28 33 15 18 1018.1 - 0.0
01/12:30pm 25.8 23.4 17.4 59 5.3 S 26 33 14 18 1018.6 - 0.0
01/12:00pm 25.4 23.1 16.7 58 5.4 SSW 24 30 13 16 1019.1 1019.1 0.0
01/11:30am 24.7 22.4 16.6 60 5.0 S 24 30 13 16 1019.6 - 0.0
01/11:00am 24.2 23.4 16.2 61 4.9 SSE 15 19 8 10 1020.0 - 0.0
01/10:30am 23.1 22.4 16.4 66 4.1 SE 15 20 8 11 1020.6 - 0.0
01/10:00am 21.8 21.0 16.2 70 3.4 SE 15 22 8 12 1020.8 - 0.0
01/09:30am 20.9 19.8 16.3 75 2.8 SE 17 20 9 11 1021.1 - 0.0
01/09:00am 20.0 18.2 16.0 78 2.4 SSE 20 26 11 14 1021.1 1021.1 0.0
01/08:30am 19.1 17.5 16.5 85 1.6 SE 20 26 11 14 1020.9 - 0.0
01/08:00am 18.0 16.5 16.2 89 1.1 SE 19 24 10 13 1020.7 - 0.0
01/07:30am 17.1 15.4 15.8 92 0.8 SE 19 26 10 14 1020.4 - 0.0
01/07:00am 16.3 14.8 15.4 94 0.5 SE 17 20 9 11 1020.0 - 0.0
01/06:30am 16.0 14.5 15.2 95 0.5 SE 17 20 9 11 1019.9 - 0.0
01/06:00am 16.6 14.8 15.4 93 0.7 SSE 19 24 10 13 1019.8 1019.8 0.0
01/05:30am 16.6 15.1 15.4 93 0.7 SE 17 20 9 11 1019.6 - 0.0
01/05:00am 16.0 14.4 15.0 94 0.6 SE 17 22 9 12 1019.3 - 0.0
01/04:30am 16.1 14.5 15.1 94 0.6 SE 17 20 9 11 1019.2 - 0.0
01/04:00am 16.5 14.4 15.2 92 0.8 SE 20 24 11 13 1019.1 - 0.0
01/03:30am 16.4 15.2 15.1 92 0.8 ESE 15 17 8 9 1019.3 - 0.0
01/03:00am 16.6 15.8 15.1 91 0.9 SE 13 17 7 9 1019.5 1019.5 0.0
01/02:30am 16.7 15.6 15.2 91 0.9 SSE 15 19 8 10 1019.4 - 0.0
01/02:00am 16.8 15.2 15.1 90 1.0 SSE 17 20 9 11 1019.5 - 0.0
01/01:30am 17.2 15.7 15.2 88 1.2 SE 17 20 9 11 1019.7 - 0.0
01/01:00am 17.6 16.1 15.3 86 1.3 SSE 17 19 9 10 1019.6 - 0.0
01/12:30am 18.1 16.6 15.2 83 1.7 SE 17 22 9 12 1019.6 - 0.0
01/12:00am 18.3 16.9 15.6 84 1.6 SSE 17 22 9 12 1019.6 1019.6 0.0
 
Date/Time
WST
Temp
°C
App
Temp
°C
Dew
Point
Rel
Hum
%
Delta-T
°C
Wind Press
QNH
hPa
Press
MSL
hPa
Rain
since 9 am
mm
Dir
 
Spd
km/h
Gust
km/h
Spd
kts
Gust
kts
31/11:30pm 18.4 17.7 16.4 88 1.2 SE 15 17 8 9 1019.6 - 0.0
31/11:00pm 18.9 18.7 16.8 87 1.3 ESE 13 17 7 9 1019.6 - 0.0
31/10:30pm 19.9 18.5 16.9 83 1.8 SSE 20 24 11 13 1019.3 - 0.0
31/10:00pm 19.7 19.8 17.5 87 1.3 SSE 13 17 7 9 1019.5 - 0.0
31/09:30pm 20.3 19.5 17.2 82 1.9 S 17 24 9 13 1019.2 - 0.0
31/09:00pm 20.3 19.0 16.8 80 2.1 S 19 24 10 13 1018.9 1018.9 0.0
31/08:30pm 20.3 19.1 17.1 82 2.0 S 19 24 10 13 1018.8 - 0.0
31/08:00pm 20.4 19.2 17.0 81 2.1 S 19 22 10 12 1018.6 - 0.0
31/07:30pm 20.6 19.2 16.5 77 2.5 S 19 28 10 15 1018.3 - 0.0
31/07:00pm 20.6 18.8 16.0 75 2.8 S 20 26 11 14 1017.8 - 0.0
31/06:30pm 21.1 19.1 15.6 71 3.3 S 20 26 11 14 1017.6 - 0.0
31/06:00pm 21.8 18.7 15.6 68 3.7 S 26 32 14 17 1017.4 1017.3 0.0
31/05:30pm 22.4 19.3 15.6 65 4.1 S 26 33 14 18 1017.1 - 0.0
31/05:00pm 22.9 20.1 15.4 62 4.5 S 24 35 13 19 1016.9 - 0.0
31/04:30pm 23.5 20.5 15.9 62 4.6 S 26 32 14 17 1016.9 - 0.0
31/04:00pm 23.8 20.3 15.5 59 5.0 S 28 33 15 18 1016.8 - 0.0
31/03:30pm 24.4 21.4 14.9 55 5.7 SSW 24 30 13 16 1016.6 - 0.0
31/03:00pm 24.4 21.8 16.0 59 5.1 SSW 24 33 13 18 1016.6 1016.5 0.0
31/02:30pm 23.8 21.6 16.9 65 4.3 S 24 33 13 18 1016.7 - 0.0
31/02:00pm 23.7 21.2 17.1 66 4.1 S 26 35 14 19 1016.7 - 0.0
31/01:30pm 23.8 20.9 17.0 65 4.2 S 28 35 15 19 1016.7 - 0.0
31/01:00pm 24.6 22.3 16.6 61 4.9 S 24 32 13 17 1017.0 - 0.0
31/12:30pm 23.7 21.7 17.4 68 3.9 S 24 32 13 17 1017.1 - 0.0
31/12:00pm 23.5 21.2 17.5 69 3.7 S 26 32 14 17 1017.4 1017.3 0.0
31/11:30am 23.8 22.5 18.2 71 3.5 SSE 22 28 12 15 1017.6 - 0.0
31/11:00am 23.0 22.4 18.4 75 2.9 SSE 19 24 10 13 1018.0 - 0.0
31/10:30am 22.1 21.9 18.5 80 2.3 SSE 17 20 9 11 1018.1 - 0.0
31/10:00am 21.9 22.4 19.2 85 1.7 SSE 15 19 8 10 1018.0 - 0.0
31/09:30am 20.9 22.6 19.3 90 1.0 S 9 11 5 6 1018.0 - 0.0
31/09:00am 20.1 21.9 18.3 89 1.1 SSE 6 9 3 5 1018.1 1018.1 14.8
31/08:30am 19.7 21.7 17.9 89 1.1 SSW 4 9 2 5 1017.8 - 14.8
31/08:00am 19.5 20.8 17.6 89 1.2 SSE 7 9 4 5 1017.6 - 14.4
31/07:30am 19.6 21.8 18.4 93 0.7 S 4 9 2 5 1017.4 - 13.6
31/07:00am 19.5 22.5 18.4 93 0.7 CALM 0 0 0 0 1017.0 - 13.2
31/06:30am 19.3 20.8 18.1 93 0.7 ESE 7 9 4 5 1016.9 - 12.6
31/06:00am 19.4 21.1 18.5 94 0.6 E 7 9 4 5 1016.7 1016.6 11.0
31/05:31am 19.5 20.9 18.6 94 0.6 E 9 11 5 6 1016.3 - 9.0
31/05:30am 19.5 20.9 18.6 94 0.6 E 9 11 5 6 1016.3 - 8.8
31/05:04am 19.4 20.7 18.5 94 0.6 SE 9 11 5 6 1016.1 - 7.0
31/05:00am 19.4 20.6 18.3 93 0.7 SE 9 13 5 7 1016.1 - 6.6
31/04:53am 19.3 19.7 18.2 93 0.7 SE 13 17 7 9 1015.9 - 6.2
31/04:37am 19.1 18.9 17.7 92 0.9 SSE 15 17 8 9 1015.8 - 5.2
31/04:30am 19.1 18.9 17.5 90 1.0 SSE 15 20 8 11 1015.8 - 4.2
31/04:23am 19.3 18.8 17.0 86 1.4 SSE 15 20 8 11 1015.8 - 3.6
31/04:04am 19.7 20.7 18.7 94 0.6 SSE 11 15 6 8 1015.6 - 1.8
31/04:00am 19.9 21.0 18.9 94 0.6 SSE 11 13 6 7 1015.5 - 1.2
31/03:30am 20.0 21.3 18.5 91 0.9 SE 9 11 5 6 1015.4 - 0.8
31/03:00am 19.9 21.2 18.5 92 0.9 SE 9 9 5 5 1015.4 1015.3 0.8
31/02:30am 19.9 21.6 18.5 92 0.9 ESE 7 9 4 5 1015.3 - 0.8
31/02:00am 20.0 21.3 18.4 90 1.0 SE 9 9 5 5 1015.4 - 0.8
31/01:30am 20.1 21.8 18.4 90 1.1 SSE 7 9 4 5 1015.3 - 0.8
31/01:00am 20.0 22.3 18.6 92 0.9 S 4 7 2 4 1015.9 - 0.8
31/12:30am 20.2 21.9 18.5 90 1.1 SSE 7 9 4 5 1016.1 - 0.8
31/12:00am 20.4 21.3 18.5 89 1.2 SSE 11 11 6 6 1016.1 1016.0 0.8
 
Date/Time
WST
Temp
°C
App
Temp
°C
Dew
Point
Rel
Hum
%
Delta-T
°C
Wind Press
QNH
hPa
Press
MSL
hPa
Rain
since 9 am
mm
Dir
 
Spd
km/h
Gust
km/h
Spd
kts
Gust
kts
30/11:30pm 20.5 21.6 18.8 90 1.1 SSE 11 13 6 7 1016.3 - 0.8
30/11:00pm 20.7 22.6 19.0 90 1.1 SSE 7 9 4 5 1016.7 - 0.8
30/10:30pm 20.9 22.5 19.2 90 1.1 SSE 9 9 5 5 1017.0 - 0.8
30/10:00pm 21.0 23.2 19.1 89 1.2 ESE 6 7 3 4 1017.2 - 0.8
30/09:30pm 21.0 23.3 19.4 90 1.0 ESE 6 7 3 4 1017.4 - 0.8
30/09:00pm 21.0 23.2 19.6 92 0.9 SSE 7 9 4 5 1017.6 1017.5 0.8
30/08:30pm 21.1 23.4 19.4 90 1.1 SSE 6 7 3 4 1017.5 - 0.8
30/08:00pm 21.0 22.7 19.4 90 1.0 ESE 9 11 5 6 1017.1 - 0.8
30/07:30pm 21.3 23.5 19.6 90 1.1 SSE 7 9 4 5 1016.7 - 0.8
30/07:00pm 21.4 22.9 19.7 90 1.1 S 11 13 6 7 1016.3 - 0.8
30/06:30pm 21.6 23.8 19.5 88 1.3 S 7 9 4 5 1016.2 - 0.8
30/06:00pm 21.9 24.2 19.4 86 1.6 SW 6 7 3 4 1016.3 1016.2 0.8
30/05:30pm 22.2 24.2 18.8 81 2.1 SSE 6 7 3 4 1016.2 - 0.8
30/05:00pm 22.4 23.5 18.0 76 2.7 SE 9 11 5 6 1016.2 - 0.8
30/04:30pm 22.8 24.2 17.8 73 3.1 S 7 9 4 5 1016.4 - 0.8
30/04:00pm 22.9 24.0 17.2 70 3.5 S 7 9 4 5 1016.5 - 0.8
30/03:30pm 22.8 24.1 17.6 72 3.2 S 7 9 4 5 1016.2 - 0.8
30/03:00pm 22.7 24.1 17.9 74 3.0 SW 7 11 4 6 1016.1 1016.0 0.8
30/02:30pm 22.7 24.1 17.8 74 3.0 WSW 7 9 4 5 1015.7 - 0.8
30/02:00pm 22.2 23.9 18.6 80 2.3 NNE 7 11 4 6 1015.7 - 0.8
30/01:30pm 21.7 22.0 18.0 79 2.3 N 13 15 7 8 1016.1 - 0.6
30/01:00pm 22.0 22.0 18.0 78 2.5 N 15 17 8 9 1016.5 - 0.2
30/12:30pm 23.2 22.5 16.3 65 4.2 NNW 15 20 8 11 1016.8 - 0.0
30/12:00pm 23.8 21.8 14.9 57 5.3 NNW 19 20 10 11 1017.1 1017.0 0.0
30/11:30am 24.0 21.3 13.0 50 6.4 NNW 19 24 10 13 1017.3 - 0.0
30/11:00am 23.8 22.5 14.9 57 5.3 NNW 15 20 8 11 1017.5 - 0.0
30/10:30am 23.6 22.5 15.3 59 5.0 NNW 15 17 8 9 1017.6 - 0.0
30/10:00am 23.0 22.3 15.5 62 4.5 NNW 13 17 7 9 1017.7 - 0.0
30/09:30am 22.1 22.1 15.1 64 4.2 NNW 9 13 5 7 1017.8 - 0.0

Other Formats:

Comma delimited format used in spreadsheet applications
http://www.bom.gov.au/fwo/IDW60801/IDW60801.94403.axf

JavaScript Object Notation format (JSON) in row-major order
http://www.bom.gov.au/fwo/IDW60801/IDW60801.94403.json